sensor_id;sensor_type;location;lat;lon;timestamp;P1;durP1;ratioP1;P2;durP2;ratioP2
24557;SDS011;12726;49.148;8.582;2023-12-28T00:01:05;9.40;;;5.82;;
24557;SDS011;12726;49.148;8.582;2023-12-28T00:03:51;10.65;;;6.53;;
24557;SDS011;12726;49.148;8.582;2023-12-28T00:06:36;10.52;;;6.70;;
24557;SDS011;12726;49.148;8.582;2023-12-28T00:09:21;10.57;;;5.80;;
24557;SDS011;12726;49.148;8.582;2023-12-28T00:12:07;8.87;;;5.40;;
24557;SDS011;12726;49.148;8.582;2023-12-28T00:14:52;8.85;;;5.40;;
24557;SDS011;12726;49.148;8.582;2023-12-28T00:17:39;10.07;;;5.60;;
24557;SDS011;12726;49.148;8.582;2023-12-28T00:20:24;11.52;;;5.80;;
24557;SDS011;12726;49.148;8.582;2023-12-28T00:23:10;11.10;;;5.38;;
24557;SDS011;12726;49.148;8.582;2023-12-28T00:25:55;10.82;;;5.80;;
24557;SDS011;12726;49.148;8.582;2023-12-28T00:28:40;11.57;;;7.00;;
24557;SDS011;12726;49.148;8.582;2023-12-28T00:31:26;11.73;;;6.20;;
24557;SDS011;12726;49.148;8.582;2023-12-28T00:34:12;9.40;;;5.90;;
24557;SDS011;12726;49.148;8.582;2023-12-28T00:36:58;8.98;;;5.60;;
24557;SDS011;12726;49.148;8.582;2023-12-28T00:39:43;8.60;;;5.25;;
24557;SDS011;12726;49.148;8.582;2023-12-28T00:42:30;8.23;;;5.15;;
24557;SDS011;12726;49.148;8.582;2023-12-28T00:45:16;8.35;;;5.32;;
24557;SDS011;12726;49.148;8.582;2023-12-28T00:48:01;10.02;;;5.82;;
24557;SDS011;12726;49.148;8.582;2023-12-28T00:50:48;8.77;;;5.68;;
24557;SDS011;12726;49.148;8.582;2023-12-28T00:53:33;8.52;;;5.45;;
24557;SDS011;12726;49.148;8.582;2023-12-28T00:56:18;10.85;;;5.50;;
24557;SDS011;12726;49.148;8.582;2023-12-28T00:59:05;7.78;;;5.93;;
24557;SDS011;12726;49.148;8.582;2023-12-28T01:01:50;10.32;;;6.13;;
24557;SDS011;12726;49.148;8.582;2023-12-28T01:04:35;9.57;;;5.55;;
24557;SDS011;12726;49.148;8.582;2023-12-28T01:07:22;8.55;;;5.40;;
24557;SDS011;12726;49.148;8.582;2023-12-28T01:10:07;9.48;;;5.30;;
24557;SDS011;12726;49.148;8.582;2023-12-28T01:12:53;10.35;;;5.20;;
24557;SDS011;12726;49.148;8.582;2023-12-28T01:15:38;7.75;;;5.07;;
24557;SDS011;12726;49.148;8.582;2023-12-28T01:18:24;6.75;;;4.75;;
24557;SDS011;12726;49.148;8.582;2023-12-28T01:21:09;8.55;;;5.60;;
24557;SDS011;12726;49.148;8.582;2023-12-28T01:23:56;8.38;;;5.20;;
24557;SDS011;12726;49.148;8.582;2023-12-28T01:26:41;8.18;;;4.70;;
24557;SDS011;12726;49.148;8.582;2023-12-28T01:29:26;10.32;;;4.97;;
24557;SDS011;12726;49.148;8.582;2023-12-28T01:32:12;7.70;;;4.60;;
24557;SDS011;12726;49.148;8.582;2023-12-28T01:34:57;8.00;;;4.68;;
24557;SDS011;12726;49.148;8.582;2023-12-28T01:37:43;7.68;;;4.55;;
24557;SDS011;12726;49.148;8.582;2023-12-28T01:40:29;8.80;;;4.72;;
24557;SDS011;12726;49.148;8.582;2023-12-28T01:43:15;6.35;;;4.20;;
24557;SDS011;12726;49.148;8.582;2023-12-28T01:46:01;6.95;;;4.60;;
24557;SDS011;12726;49.148;8.582;2023-12-28T01:48:47;6.40;;;3.90;;
24557;SDS011;12726;49.148;8.582;2023-12-28T01:51:34;7.78;;;4.32;;
24557;SDS011;12726;49.148;8.582;2023-12-28T01:54:20;9.98;;;4.97;;
24557;SDS011;12726;49.148;8.582;2023-12-28T01:57:07;8.68;;;4.35;;
24557;SDS011;12726;49.148;8.582;2023-12-28T01:59:53;8.35;;;4.00;;
24557;SDS011;12726;49.148;8.582;2023-12-28T02:02:39;11.35;;;5.10;;
24557;SDS011;12726;49.148;8.582;2023-12-28T02:05:25;5.80;;;3.92;;
24557;SDS011;12726;49.148;8.582;2023-12-28T02:08:11;7.38;;;4.40;;
24557;SDS011;12726;49.148;8.582;2023-12-28T02:10:56;5.60;;;4.15;;
24557;SDS011;12726;49.148;8.582;2023-12-28T02:13:43;7.80;;;4.43;;
24557;SDS011;12726;49.148;8.582;2023-12-28T02:16:32;9.05;;;4.65;;
24557;SDS011;12726;49.148;8.582;2023-12-28T02:19:23;6.95;;;4.18;;
24557;SDS011;12726;49.148;8.582;2023-12-28T02:22:15;6.88;;;4.45;;
24557;SDS011;12726;49.148;8.582;2023-12-28T02:25:05;8.35;;;4.40;;
24557;SDS011;12726;49.148;8.582;2023-12-28T02:27:52;8.73;;;4.15;;
24557;SDS011;12726;49.148;8.582;2023-12-28T02:30:37;7.63;;;3.85;;
24557;SDS011;12726;49.148;8.582;2023-12-28T02:33:24;8.25;;;4.40;;
24557;SDS011;12726;49.148;8.582;2023-12-28T02:36:14;8.43;;;3.90;;
24557;SDS011;12726;49.148;8.582;2023-12-28T02:39:05;7.25;;;3.92;;
24557;SDS011;12726;49.148;8.582;2023-12-28T02:41:53;6.30;;;3.40;;
24557;SDS011;12726;49.148;8.582;2023-12-28T02:44:39;6.97;;;2.97;;
24557;SDS011;12726;49.148;8.582;2023-12-28T02:47:24;5.05;;;3.28;;
24557;SDS011;12726;49.148;8.582;2023-12-28T02:50:09;6.63;;;3.10;;
24557;SDS011;12726;49.148;8.582;2023-12-28T02:52:55;7.15;;;3.60;;
24557;SDS011;12726;49.148;8.582;2023-12-28T02:55:40;5.53;;;3.17;;
24557;SDS011;12726;49.148;8.582;2023-12-28T02:58:27;6.22;;;3.33;;
24557;SDS011;12726;49.148;8.582;2023-12-28T03:01:12;7.47;;;3.60;;
24557;SDS011;12726;49.148;8.582;2023-12-28T03:03:57;7.80;;;3.67;;
24557;SDS011;12726;49.148;8.582;2023-12-28T03:06:43;5.80;;;3.70;;
24557;SDS011;12726;49.148;8.582;2023-12-28T03:09:31;9.48;;;4.18;;
24557;SDS011;12726;49.148;8.582;2023-12-28T03:12:16;5.60;;;3.67;;
24557;SDS011;12726;49.148;8.582;2023-12-28T03:15:03;5.35;;;3.45;;
24557;SDS011;12726;49.148;8.582;2023-12-28T03:17:50;5.95;;;3.63;;
24557;SDS011;12726;49.148;8.582;2023-12-28T03:20:35;7.32;;;3.50;;
24557;SDS011;12726;49.148;8.582;2023-12-28T03:23:20;5.90;;;3.65;;
24557;SDS011;12726;49.148;8.582;2023-12-28T03:26:06;5.32;;;3.22;;
24557;SDS011;12726;49.148;8.582;2023-12-28T03:28:51;8.02;;;4.43;;
24557;SDS011;12726;49.148;8.582;2023-12-28T03:31:39;5.63;;;3.45;;
24557;SDS011;12726;49.148;8.582;2023-12-28T03:34:25;5.60;;;3.35;;
24557;SDS011;12726;49.148;8.582;2023-12-28T03:37:12;5.03;;;3.20;;
24557;SDS011;12726;49.148;8.582;2023-12-28T03:39:58;5.22;;;3.20;;
24557;SDS011;12726;49.148;8.582;2023-12-28T03:42:43;6.05;;;3.20;;
24557;SDS011;12726;49.148;8.582;2023-12-28T03:45:29;6.38;;;3.30;;
24557;SDS011;12726;49.148;8.582;2023-12-28T03:48:15;7.10;;;4.28;;
24557;SDS011;12726;49.148;8.582;2023-12-28T03:51:01;6.07;;;3.60;;
24557;SDS011;12726;49.148;8.582;2023-12-28T03:53:46;6.68;;;3.92;;
24557;SDS011;12726;49.148;8.582;2023-12-28T03:56:32;7.22;;;3.28;;
24557;SDS011;12726;49.148;8.582;2023-12-28T03:59:19;6.55;;;3.42;;
24557;SDS011;12726;49.148;8.582;2023-12-28T04:02:04;5.90;;;3.75;;
24557;SDS011;12726;49.148;8.582;2023-12-28T04:04:51;7.22;;;3.63;;
24557;SDS011;12726;49.148;8.582;2023-12-28T04:07:37;10.55;;;3.30;;
24557;SDS011;12726;49.148;8.582;2023-12-28T04:10:28;7.60;;;3.75;;
24557;SDS011;12726;49.148;8.582;2023-12-28T04:13:15;5.05;;;3.20;;
24557;SDS011;12726;49.148;8.582;2023-12-28T04:16:00;7.28;;;3.65;;
24557;SDS011;12726;49.148;8.582;2023-12-28T04:18:46;7.07;;;3.30;;
24557;SDS011;12726;49.148;8.582;2023-12-28T04:21:33;8.35;;;3.00;;
24557;SDS011;12726;49.148;8.582;2023-12-28T04:24:18;4.60;;;3.00;;
24557;SDS011;12726;49.148;8.582;2023-12-28T04:27:03;4.93;;;3.50;;
24557;SDS011;12726;49.148;8.582;2023-12-28T04:29:49;7.40;;;3.95;;
24557;SDS011;12726;49.148;8.582;2023-12-28T04:32:34;6.13;;;3.78;;
24557;SDS011;12726;49.148;8.582;2023-12-28T04:35:19;5.90;;;3.35;;
24557;SDS011;12726;49.148;8.582;2023-12-28T04:38:08;6.13;;;3.10;;
24557;SDS011;12726;49.148;8.582;2023-12-28T04:40:53;4.72;;;2.83;;
24557;SDS011;12726;49.148;8.582;2023-12-28T04:43:38;4.00;;;2.60;;
24557;SDS011;12726;49.148;8.582;2023-12-28T04:46:24;5.18;;;2.83;;
24557;SDS011;12726;49.148;8.582;2023-12-28T04:49:10;4.93;;;3.10;;
24557;SDS011;12726;49.148;8.582;2023-12-28T04:51:55;4.75;;;2.90;;
24557;SDS011;12726;49.148;8.582;2023-12-28T04:54:42;7.72;;;3.10;;
24557;SDS011;12726;49.148;8.582;2023-12-28T04:57:27;5.47;;;3.22;;
24557;SDS011;12726;49.148;8.582;2023-12-28T05:00:13;5.03;;;2.75;;
24557;SDS011;12726;49.148;8.582;2023-12-28T05:02:59;6.13;;;3.38;;
24557;SDS011;12726;49.148;8.582;2023-12-28T05:05:44;4.45;;;2.50;;
24557;SDS011;12726;49.148;8.582;2023-12-28T05:08:30;5.45;;;2.40;;
24557;SDS011;12726;49.148;8.582;2023-12-28T05:11:16;5.20;;;2.30;;
24557;SDS011;12726;49.148;8.582;2023-12-28T05:14:02;4.70;;;2.50;;
24557;SDS011;12726;49.148;8.582;2023-12-28T05:16:47;4.18;;;2.22;;
24557;SDS011;12726;49.148;8.582;2023-12-28T05:19:32;3.15;;;2.03;;
24557;SDS011;12726;49.148;8.582;2023-12-28T05:22:18;4.90;;;2.50;;
24557;SDS011;12726;49.148;8.582;2023-12-28T05:25:03;4.13;;;2.10;;
24557;SDS011;12726;49.148;8.582;2023-12-28T05:27:50;4.38;;;2.00;;
24557;SDS011;12726;49.148;8.582;2023-12-28T05:30:36;3.53;;;2.00;;
24557;SDS011;12726;49.148;8.582;2023-12-28T05:33:21;2.53;;;1.88;;
24557;SDS011;12726;49.148;8.582;2023-12-28T05:36:06;4.13;;;2.30;;
24557;SDS011;12726;49.148;8.582;2023-12-28T05:38:51;2.38;;;1.80;;
24557;SDS011;12726;49.148;8.582;2023-12-28T05:41:37;2.92;;;2.28;;
24557;SDS011;12726;49.148;8.582;2023-12-28T05:44:23;2.53;;;2.08;;
24557;SDS011;12726;49.148;8.582;2023-12-28T05:47:09;2.90;;;1.98;;
24557;SDS011;12726;49.148;8.582;2023-12-28T05:49:54;4.63;;;2.45;;
24557;SDS011;12726;49.148;8.582;2023-12-28T05:52:39;2.97;;;1.90;;
24557;SDS011;12726;49.148;8.582;2023-12-28T05:55:25;3.90;;;2.40;;
24557;SDS011;12726;49.148;8.582;2023-12-28T05:58:10;3.05;;;2.25;;
24557;SDS011;12726;49.148;8.582;2023-12-28T06:00:57;5.15;;;3.22;;
24557;SDS011;12726;49.148;8.582;2023-12-28T06:03:42;3.72;;;2.53;;
24557;SDS011;12726;49.148;8.582;2023-12-28T06:06:27;4.68;;;2.38;;
24557;SDS011;12726;49.148;8.582;2023-12-28T06:09:12;3.83;;;2.70;;
24557;SDS011;12726;49.148;8.582;2023-12-28T06:11:57;4.68;;;2.50;;
24557;SDS011;12726;49.148;8.582;2023-12-28T06:14:43;4.45;;;2.55;;
24557;SDS011;12726;49.148;8.582;2023-12-28T06:17:32;2.75;;;2.08;;
24557;SDS011;12726;49.148;8.582;2023-12-28T06:20:17;5.18;;;2.53;;
24557;SDS011;12726;49.148;8.582;2023-12-28T06:23:03;2.90;;;1.90;;
24557;SDS011;12726;49.148;8.582;2023-12-28T06:25:48;3.65;;;1.80;;
24557;SDS011;12726;49.148;8.582;2023-12-28T06:28:34;3.03;;;2.00;;
24557;SDS011;12726;49.148;8.582;2023-12-28T06:31:19;5.95;;;2.15;;
24557;SDS011;12726;49.148;8.582;2023-12-28T06:34:06;3.92;;;2.05;;
24557;SDS011;12726;49.148;8.582;2023-12-28T06:36:51;3.95;;;2.58;;
24557;SDS011;12726;49.148;8.582;2023-12-28T06:39:36;4.00;;;2.50;;
24557;SDS011;12726;49.148;8.582;2023-12-28T06:42:22;6.95;;;2.70;;
24557;SDS011;12726;49.148;8.582;2023-12-28T06:45:07;3.60;;;2.47;;
24557;SDS011;12726;49.148;8.582;2023-12-28T06:47:53;4.40;;;2.33;;
24557;SDS011;12726;49.148;8.582;2023-12-28T06:50:40;5.93;;;2.50;;
24557;SDS011;12726;49.148;8.582;2023-12-28T06:53:27;3.80;;;2.35;;
24557;SDS011;12726;49.148;8.582;2023-12-28T06:56:13;3.10;;;2.03;;
24557;SDS011;12726;49.148;8.582;2023-12-28T06:58:58;3.35;;;2.45;;
24557;SDS011;12726;49.148;8.582;2023-12-28T07:01:43;3.95;;;2.75;;
24557;SDS011;12726;49.148;8.582;2023-12-28T07:04:29;3.38;;;2.10;;
24557;SDS011;12726;49.148;8.582;2023-12-28T07:07:17;4.00;;;2.15;;
24557;SDS011;12726;49.148;8.582;2023-12-28T07:10:03;3.25;;;2.08;;
24557;SDS011;12726;49.148;8.582;2023-12-28T07:12:49;2.22;;;2.03;;
24557;SDS011;12726;49.148;8.582;2023-12-28T07:15:34;4.60;;;2.42;;
24557;SDS011;12726;49.148;8.582;2023-12-28T07:18:19;3.47;;;2.23;;
24557;SDS011;12726;49.148;8.582;2023-12-28T07:21:04;3.63;;;2.60;;
24557;SDS011;12726;49.148;8.582;2023-12-28T07:23:54;4.75;;;2.25;;
24557;SDS011;12726;49.148;8.582;2023-12-28T07:26:40;5.30;;;2.80;;
24557;SDS011;12726;49.148;8.582;2023-12-28T07:29:25;4.32;;;2.40;;
24557;SDS011;12726;49.148;8.582;2023-12-28T07:32:11;5.22;;;2.75;;
24557;SDS011;12726;49.148;8.582;2023-12-28T07:34:56;3.17;;;2.17;;
24557;SDS011;12726;49.148;8.582;2023-12-28T07:37:43;4.28;;;2.70;;
24557;SDS011;12726;49.148;8.582;2023-12-28T07:40:29;4.75;;;2.35;;
24557;SDS011;12726;49.148;8.582;2023-12-28T07:43:14;4.55;;;2.75;;
24557;SDS011;12726;49.148;8.582;2023-12-28T07:46:00;3.45;;;2.53;;
24557;SDS011;12726;49.148;8.582;2023-12-28T07:48:45;5.05;;;2.40;;
24557;SDS011;12726;49.148;8.582;2023-12-28T07:51:31;4.18;;;2.60;;
24557;SDS011;12726;49.148;8.582;2023-12-28T07:54:16;6.95;;;3.15;;
24557;SDS011;12726;49.148;8.582;2023-12-28T07:57:03;6.57;;;2.65;;
24557;SDS011;12726;49.148;8.582;2023-12-28T07:59:48;4.45;;;2.55;;
24557;SDS011;12726;49.148;8.582;2023-12-28T08:02:34;5.38;;;2.35;;
24557;SDS011;12726;49.148;8.582;2023-12-28T08:05:19;5.05;;;2.50;;
24557;SDS011;12726;49.148;8.582;2023-12-28T08:08:05;5.35;;;2.70;;
24557;SDS011;12726;49.148;8.582;2023-12-28T08:10:51;3.88;;;2.55;;
24557;SDS011;12726;49.148;8.582;2023-12-28T08:13:38;5.18;;;3.10;;
24557;SDS011;12726;49.148;8.582;2023-12-28T08:16:23;5.88;;;2.88;;
24557;SDS011;12726;49.148;8.582;2023-12-28T08:19:09;6.45;;;3.10;;
24557;SDS011;12726;49.148;8.582;2023-12-28T08:21:54;8.65;;;3.80;;
24557;SDS011;12726;49.148;8.582;2023-12-28T08:24:40;5.85;;;2.83;;
24557;SDS011;12726;49.148;8.582;2023-12-28T08:27:25;4.43;;;2.47;;
24557;SDS011;12726;49.148;8.582;2023-12-28T08:30:12;4.05;;;2.33;;
24557;SDS011;12726;49.148;8.582;2023-12-28T08:32:58;6.95;;;2.53;;
24557;SDS011;12726;49.148;8.582;2023-12-28T08:35:43;4.30;;;2.30;;
24557;SDS011;12726;49.148;8.582;2023-12-28T08:38:29;4.00;;;2.40;;
24557;SDS011;12726;49.148;8.582;2023-12-28T08:41:18;3.90;;;2.28;;
24557;SDS011;12726;49.148;8.582;2023-12-28T08:44:03;3.42;;;2.40;;
24557;SDS011;12726;49.148;8.582;2023-12-28T08:46:50;3.55;;;2.30;;
24557;SDS011;12726;49.148;8.582;2023-12-28T08:49:35;3.33;;;2.10;;
24557;SDS011;12726;49.148;8.582;2023-12-28T08:52:20;6.32;;;2.60;;
24557;SDS011;12726;49.148;8.582;2023-12-28T08:55:06;5.38;;;2.38;;
24557;SDS011;12726;49.148;8.582;2023-12-28T08:57:51;3.83;;;2.10;;
24557;SDS011;12726;49.148;8.582;2023-12-28T09:00:37;4.60;;;2.42;;
24557;SDS011;12726;49.148;8.582;2023-12-28T09:03:24;3.75;;;2.20;;
24557;SDS011;12726;49.148;8.582;2023-12-28T09:06:09;4.78;;;2.80;;
24557;SDS011;12726;49.148;8.582;2023-12-28T09:08:54;4.63;;;2.40;;
24557;SDS011;12726;49.148;8.582;2023-12-28T09:11:40;4.10;;;2.50;;
24557;SDS011;12726;49.148;8.582;2023-12-28T09:14:26;4.53;;;2.75;;
24557;SDS011;12726;49.148;8.582;2023-12-28T09:17:11;3.83;;;2.65;;
24557;SDS011;12726;49.148;8.582;2023-12-28T09:19:58;7.03;;;2.58;;
24557;SDS011;12726;49.148;8.582;2023-12-28T09:22:44;2.78;;;2.08;;
24557;SDS011;12726;49.148;8.582;2023-12-28T09:25:31;3.55;;;2.40;;
24557;SDS011;12726;49.148;8.582;2023-12-28T09:28:16;3.33;;;2.40;;
24557;SDS011;12726;49.148;8.582;2023-12-28T09:31:02;4.55;;;2.67;;
24557;SDS011;12726;49.148;8.582;2023-12-28T09:33:47;6.45;;;2.88;;
24557;SDS011;12726;49.148;8.582;2023-12-28T09:36:34;4.85;;;2.50;;
24557;SDS011;12726;49.148;8.582;2023-12-28T09:39:19;5.32;;;2.78;;
24557;SDS011;12726;49.148;8.582;2023-12-28T09:42:06;3.33;;;2.42;;
24557;SDS011;12726;49.148;8.582;2023-12-28T09:44:59;4.82;;;2.40;;
24557;SDS011;12726;49.148;8.582;2023-12-28T09:47:44;5.20;;;2.72;;
24557;SDS011;12726;49.148;8.582;2023-12-28T09:50:30;3.08;;;2.20;;
24557;SDS011;12726;49.148;8.582;2023-12-28T09:53:16;3.95;;;2.50;;
24557;SDS011;12726;49.148;8.582;2023-12-28T09:56:02;7.63;;;2.47;;
24557;SDS011;12726;49.148;8.582;2023-12-28T09:58:49;3.05;;;2.30;;
24557;SDS011;12726;49.148;8.582;2023-12-28T10:01:38;2.92;;;2.53;;
24557;SDS011;12726;49.148;8.582;2023-12-28T10:04:23;4.13;;;2.35;;
24557;SDS011;12726;49.148;8.582;2023-12-28T10:07:09;2.75;;;2.15;;
24557;SDS011;12726;49.148;8.582;2023-12-28T10:09:56;6.00;;;2.40;;
24557;SDS011;12726;49.148;8.582;2023-12-28T10:12:41;4.57;;;2.30;;
24557;SDS011;12726;49.148;8.582;2023-12-28T10:15:27;3.97;;;2.47;;
24557;SDS011;12726;49.148;8.582;2023-12-28T10:18:13;5.45;;;3.00;;
24557;SDS011;12726;49.148;8.582;2023-12-28T10:20:58;4.78;;;2.45;;
24557;SDS011;12726;49.148;8.582;2023-12-28T10:23:44;4.15;;;2.30;;
24557;SDS011;12726;49.148;8.582;2023-12-28T10:26:31;3.53;;;2.33;;
24557;SDS011;12726;49.148;8.582;2023-12-28T10:29:16;6.00;;;2.45;;
24557;SDS011;12726;49.148;8.582;2023-12-28T10:32:01;5.28;;;2.78;;
24557;SDS011;12726;49.148;8.582;2023-12-28T10:34:48;5.80;;;2.60;;
24557;SDS011;12726;49.148;8.582;2023-12-28T10:37:33;3.78;;;2.10;;
24557;SDS011;12726;49.148;8.582;2023-12-28T10:40:20;3.33;;;2.00;;
24557;SDS011;12726;49.148;8.582;2023-12-28T10:43:08;3.60;;;2.33;;
24557;SDS011;12726;49.148;8.582;2023-12-28T10:45:55;4.70;;;2.53;;
24557;SDS011;12726;49.148;8.582;2023-12-28T10:48:42;3.67;;;2.58;;
24557;SDS011;12726;49.148;8.582;2023-12-28T10:51:33;3.65;;;2.60;;
24557;SDS011;12726;49.148;8.582;2023-12-28T10:54:24;6.10;;;2.40;;
24557;SDS011;12726;49.148;8.582;2023-12-28T10:57:22;5.72;;;3.00;;
24557;SDS011;12726;49.148;8.582;2023-12-28T11:00:13;4.40;;;3.03;;
24557;SDS011;12726;49.148;8.582;2023-12-28T11:03:04;5.47;;;2.80;;
24557;SDS011;12726;49.148;8.582;2023-12-28T11:05:53;4.35;;;2.15;;
24557;SDS011;12726;49.148;8.582;2023-12-28T11:08:41;4.78;;;2.78;;
24557;SDS011;12726;49.148;8.582;2023-12-28T11:11:30;4.55;;;2.88;;
24557;SDS011;12726;49.148;8.582;2023-12-28T11:14:17;5.78;;;2.65;;
24557;SDS011;12726;49.148;8.582;2023-12-28T11:17:04;4.18;;;2.70;;
24557;SDS011;12726;49.148;8.582;2023-12-28T11:19:49;9.40;;;3.00;;
24557;SDS011;12726;49.148;8.582;2023-12-28T11:22:35;5.13;;;2.83;;
24557;SDS011;12726;49.148;8.582;2023-12-28T11:25:22;6.63;;;3.38;;
24557;SDS011;12726;49.148;8.582;2023-12-28T11:28:11;6.88;;;2.70;;
24557;SDS011;12726;49.148;8.582;2023-12-28T11:30:58;3.70;;;2.40;;
24557;SDS011;12726;49.148;8.582;2023-12-28T11:33:45;5.53;;;2.70;;
24557;SDS011;12726;49.148;8.582;2023-12-28T11:36:32;5.93;;;3.40;;
24557;SDS011;12726;49.148;8.582;2023-12-28T11:39:20;5.88;;;3.10;;
24557;SDS011;12726;49.148;8.582;2023-12-28T11:42:18;6.93;;;3.58;;
24557;SDS011;12726;49.148;8.582;2023-12-28T11:45:05;4.70;;;3.05;;
24557;SDS011;12726;49.148;8.582;2023-12-28T11:48:00;6.55;;;3.58;;
24557;SDS011;12726;49.148;8.582;2023-12-28T11:50:48;5.18;;;3.33;;
24557;SDS011;12726;49.148;8.582;2023-12-28T11:53:33;5.05;;;2.85;;
24557;SDS011;12726;49.148;8.582;2023-12-28T11:56:19;8.20;;;3.30;;
24557;SDS011;12726;49.148;8.582;2023-12-28T11:59:05;7.10;;;3.03;;
24557;SDS011;12726;49.148;8.582;2023-12-28T12:01:51;5.75;;;3.10;;
24557;SDS011;12726;49.148;8.582;2023-12-28T12:04:36;3.95;;;2.80;;
24557;SDS011;12726;49.148;8.582;2023-12-28T12:07:23;8.18;;;3.42;;
24557;SDS011;12726;49.148;8.582;2023-12-28T12:10:13;6.57;;;3.10;;
24557;SDS011;12726;49.148;8.582;2023-12-28T12:12:59;3.70;;;2.75;;
24557;SDS011;12726;49.148;8.582;2023-12-28T12:15:46;7.22;;;3.55;;
24557;SDS011;12726;49.148;8.582;2023-12-28T12:18:35;4.72;;;3.10;;
24557;SDS011;12726;49.148;8.582;2023-12-28T12:21:20;6.32;;;3.42;;
24557;SDS011;12726;49.148;8.582;2023-12-28T12:24:09;5.63;;;2.88;;
24557;SDS011;12726;49.148;8.582;2023-12-28T12:26:54;5.18;;;3.65;;
24557;SDS011;12726;49.148;8.582;2023-12-28T12:29:40;5.07;;;3.50;;
24557;SDS011;12726;49.148;8.582;2023-12-28T12:32:26;5.28;;;3.75;;
24557;SDS011;12726;49.148;8.582;2023-12-28T12:35:12;5.97;;;3.78;;
24557;SDS011;12726;49.148;8.582;2023-12-28T12:37:59;5.53;;;3.50;;
24557;SDS011;12726;49.148;8.582;2023-12-28T12:40:46;6.25;;;3.85;;
24557;SDS011;12726;49.148;8.582;2023-12-28T12:43:31;4.43;;;3.70;;
24557;SDS011;12726;49.148;8.582;2023-12-28T12:46:17;4.95;;;3.60;;
24557;SDS011;12726;49.148;8.582;2023-12-28T12:49:02;7.45;;;3.83;;
24557;SDS011;12726;49.148;8.582;2023-12-28T12:51:47;6.05;;;3.85;;
24557;SDS011;12726;49.148;8.582;2023-12-28T12:54:34;5.25;;;3.50;;
24557;SDS011;12726;49.148;8.582;2023-12-28T12:57:21;6.18;;;3.05;;
24557;SDS011;12726;49.148;8.582;2023-12-28T13:00:08;4.43;;;3.38;;
24557;SDS011;12726;49.148;8.582;2023-12-28T13:02:55;6.97;;;3.97;;
24557;SDS011;12726;49.148;8.582;2023-12-28T13:05:44;6.75;;;3.65;;
24557;SDS011;12726;49.148;8.582;2023-12-28T13:08:29;4.65;;;3.30;;
24557;SDS011;12726;49.148;8.582;2023-12-28T13:11:15;6.85;;;3.60;;
24557;SDS011;12726;49.148;8.582;2023-12-28T13:14:02;5.10;;;3.22;;
24557;SDS011;12726;49.148;8.582;2023-12-28T13:16:48;6.40;;;3.28;;
24557;SDS011;12726;49.148;8.582;2023-12-28T13:19:38;5.82;;;3.30;;
24557;SDS011;12726;49.148;8.582;2023-12-28T13:22:23;4.80;;;3.17;;
24557;SDS011;12726;49.148;8.582;2023-12-28T13:25:10;5.05;;;3.30;;
24557;SDS011;12726;49.148;8.582;2023-12-28T13:27:55;6.75;;;3.67;;
24557;SDS011;12726;49.148;8.582;2023-12-28T13:30:42;6.10;;;3.08;;
24557;SDS011;12726;49.148;8.582;2023-12-28T13:33:27;4.95;;;3.22;;
24557;SDS011;12726;49.148;8.582;2023-12-28T13:36:13;7.32;;;3.30;;
24557;SDS011;12726;49.148;8.582;2023-12-28T13:38:58;6.57;;;3.67;;
24557;SDS011;12726;49.148;8.582;2023-12-28T13:41:44;5.10;;;3.70;;
24557;SDS011;12726;49.148;8.582;2023-12-28T13:44:29;7.55;;;3.92;;
24557;SDS011;12726;49.148;8.582;2023-12-28T13:47:16;6.60;;;3.80;;
24557;SDS011;12726;49.148;8.582;2023-12-28T13:50:01;7.00;;;3.80;;
24557;SDS011;12726;49.148;8.582;2023-12-28T13:52:47;6.70;;;4.25;;
24557;SDS011;12726;49.148;8.582;2023-12-28T13:55:33;5.30;;;3.85;;
24557;SDS011;12726;49.148;8.582;2023-12-28T13:58:19;6.05;;;3.85;;
24557;SDS011;12726;49.148;8.582;2023-12-28T14:01:04;5.57;;;3.90;;
24557;SDS011;12726;49.148;8.582;2023-12-28T14:03:50;7.07;;;4.32;;
24557;SDS011;12726;49.148;8.582;2023-12-28T14:06:36;6.57;;;4.03;;
24557;SDS011;12726;49.148;8.582;2023-12-28T14:09:21;7.15;;;4.03;;
24557;SDS011;12726;49.148;8.582;2023-12-28T14:12:07;6.95;;;4.10;;
24557;SDS011;12726;49.148;8.582;2023-12-28T14:14:52;10.70;;;4.47;;
24557;SDS011;12726;49.148;8.582;2023-12-28T14:17:37;6.75;;;3.67;;
24557;SDS011;12726;49.148;8.582;2023-12-28T14:20:24;6.20;;;4.00;;
24557;SDS011;12726;49.148;8.582;2023-12-28T14:23:12;5.63;;;3.97;;
24557;SDS011;12726;49.148;8.582;2023-12-28T14:25:58;5.88;;;3.60;;
24557;SDS011;12726;49.148;8.582;2023-12-28T14:28:44;6.32;;;3.85;;
24557;SDS011;12726;49.148;8.582;2023-12-28T14:31:30;8.32;;;3.15;;
24557;SDS011;12726;49.148;8.582;2023-12-28T14:34:16;4.78;;;3.30;;
24557;SDS011;12726;49.148;8.582;2023-12-28T14:37:03;5.70;;;3.45;;
24557;SDS011;12726;49.148;8.582;2023-12-28T14:39:48;4.88;;;3.10;;
24557;SDS011;12726;49.148;8.582;2023-12-28T14:42:34;8.60;;;3.45;;
24557;SDS011;12726;49.148;8.582;2023-12-28T14:45:19;7.95;;;3.95;;
24557;SDS011;12726;49.148;8.582;2023-12-28T14:48:05;10.48;;;3.90;;
24557;SDS011;12726;49.148;8.582;2023-12-28T14:50:51;3.75;;;3.08;;
24557;SDS011;12726;49.148;8.582;2023-12-28T14:53:38;6.32;;;3.80;;
24557;SDS011;12726;49.148;8.582;2023-12-28T14:56:23;6.25;;;3.22;;
24557;SDS011;12726;49.148;8.582;2023-12-28T14:59:10;5.35;;;2.90;;
24557;SDS011;12726;49.148;8.582;2023-12-28T15:01:56;7.38;;;3.58;;
24557;SDS011;12726;49.148;8.582;2023-12-28T15:04:41;7.18;;;3.47;;
24557;SDS011;12726;49.148;8.582;2023-12-28T15:07:26;6.32;;;3.85;;
24557;SDS011;12726;49.148;8.582;2023-12-28T15:10:14;6.30;;;3.55;;
24557;SDS011;12726;49.148;8.582;2023-12-28T15:13:00;8.32;;;3.70;;
24557;SDS011;12726;49.148;8.582;2023-12-28T15:15:46;5.35;;;3.47;;
24557;SDS011;12726;49.148;8.582;2023-12-28T15:18:33;6.53;;;3.85;;
24557;SDS011;12726;49.148;8.582;2023-12-28T15:21:18;5.53;;;3.65;;
24557;SDS011;12726;49.148;8.582;2023-12-28T15:24:05;5.63;;;3.15;;
24557;SDS011;12726;49.148;8.582;2023-12-28T15:26:52;5.13;;;3.25;;
24557;SDS011;12726;49.148;8.582;2023-12-28T15:29:38;5.07;;;3.22;;
24557;SDS011;12726;49.148;8.582;2023-12-28T15:32:23;7.07;;;3.60;;
24557;SDS011;12726;49.148;8.582;2023-12-28T15:35:11;6.03;;;3.50;;
24557;SDS011;12726;49.148;8.582;2023-12-28T15:37:58;5.95;;;3.90;;
24557;SDS011;12726;49.148;8.582;2023-12-28T15:40:43;5.68;;;3.30;;
24557;SDS011;12726;49.148;8.582;2023-12-28T15:43:30;4.13;;;3.22;;
24557;SDS011;12726;49.148;8.582;2023-12-28T15:46:15;3.47;;;2.72;;
24557;SDS011;12726;49.148;8.582;2023-12-28T15:49:00;4.53;;;2.80;;
24557;SDS011;12726;49.148;8.582;2023-12-28T15:51:46;5.28;;;2.85;;
24557;SDS011;12726;49.148;8.582;2023-12-28T15:54:31;4.72;;;2.72;;
24557;SDS011;12726;49.148;8.582;2023-12-28T15:57:19;4.32;;;2.67;;
24557;SDS011;12726;49.148;8.582;2023-12-28T16:00:06;4.78;;;3.15;;
24557;SDS011;12726;49.148;8.582;2023-12-28T16:02:52;5.82;;;3.33;;
24557;SDS011;12726;49.148;8.582;2023-12-28T16:05:40;3.85;;;2.78;;
24557;SDS011;12726;49.148;8.582;2023-12-28T16:08:26;5.25;;;3.72;;
24557;SDS011;12726;49.148;8.582;2023-12-28T16:11:11;8.30;;;4.25;;
24557;SDS011;12726;49.148;8.582;2023-12-28T16:13:57;9.40;;;4.65;;
24557;SDS011;12726;49.148;8.582;2023-12-28T16:16:44;6.68;;;4.15;;
24557;SDS011;12726;49.148;8.582;2023-12-28T16:19:30;7.97;;;4.40;;
24557;SDS011;12726;49.148;8.582;2023-12-28T16:22:16;5.90;;;4.18;;
24557;SDS011;12726;49.148;8.582;2023-12-28T16:25:02;5.95;;;4.03;;
24557;SDS011;12726;49.148;8.582;2023-12-28T16:27:48;8.48;;;5.07;;
24557;SDS011;12726;49.148;8.582;2023-12-28T16:30:33;7.18;;;5.00;;
24557;SDS011;12726;49.148;8.582;2023-12-28T16:33:20;5.85;;;4.82;;
24557;SDS011;12726;49.148;8.582;2023-12-28T16:36:05;5.78;;;4.50;;
24557;SDS011;12726;49.148;8.582;2023-12-28T16:38:52;8.50;;;4.32;;
24557;SDS011;12726;49.148;8.582;2023-12-28T16:41:37;8.88;;;5.13;;